Time;durP1;ratioP1;P1;durP2;ratioP2;P2;SDS_P1;SDS_P2;PMS_P1;PMS_P2;Temp;Humidity;BMP_temperature;BMP_pressure;BME280_temperature;BME280_humidity;BME280_pressure;Samples;Min_cycle;Max_cycle;Signal;HPM_P1;HPM_P2
2021/06/23 00:01:04;;;;;;;;;;;21.40;55.80;;;;;;3159994;28;20044;-72
2021/06/23 00:02:35;;;;;;;5.68;1.60;;;21.50;56.60;;;;;;3159734;28;20288;-71
2021/06/23 00:04:07;;;;;;;6.43;1.58;;;21.50;56.20;;;;;;3158957;28;20040;-72
2021/06/23 00:05:38;;;;;;;6.35;1.52;;;21.50;55.70;;;;;;3158738;28;20489;-71
2021/06/23 00:07:10;;;;;;;5.47;1.60;;;21.50;55.70;;;;;;3159233;28;20044;-71
2021/06/23 00:08:42;;;;;;;5.07;1.65;;;21.50;55.80;;;;;;3158679;28;20059;-71
2021/06/23 00:10:14;;;;;;;9.15;2.13;;;21.50;55.80;;;;;;3159852;28;20048;-71
2021/06/23 00:11:48;;;;;;;5.18;1.55;;;21.40;55.50;;;;;;3161217;28;20048;-71
2021/06/23 00:13:20;;;;;;;3.97;1.60;;;21.40;56.10;;;;;;3161287;28;20084;-71
2021/06/23 00:14:53;;;;;;;6.53;2.00;;;21.40;55.80;;;;;;3160953;28;20097;-71
2021/06/23 00:16:25;;;;;;;;;;;21.40;55.70;;;;;;3161222;28;20597;-71
2021/06/23 00:17:55;;;;;;;12.25;1.73;;;21.40;55.60;;;;;;3161371;28;19920;-71
2021/06/23 00:19:27;;;;;;;8.75;2.17;;;21.40;55.80;;;;;;3161552;28;20048;-71
2021/06/23 00:20:59;;;;;;;7.90;1.92;;;21.40;55.70;;;;;;3160827;28;20056;-71
2021/06/23 00:22:29;;;;;;;6.75;1.92;;;21.40;56.00;;;;;;3161179;28;20425;-71
2021/06/23 00:24:01;;;;;;;5.45;1.35;;;21.40;56.00;;;;;;3157102;28;20044;-71
2021/06/23 00:25:32;;;;;;;7.32;1.67;;;21.40;56.00;;;;;;3157715;28;20052;-71
2021/06/23 00:27:04;;;;;;;7.60;2.00;;;21.40;55.90;;;;;;3159127;28;20044;-71
2021/06/23 00:28:36;;;;;;;4.78;1.50;;;21.40;55.70;;;;;;3160888;28;20052;-71
2021/06/23 00:30:10;;;;;;;6.72;1.92;;;21.40;55.70;;;;;;3156529;28;20485;-72
2021/06/23 00:31:41;;;;;;;7.63;1.98;;;21.40;56.40;;;;;;3154499;28;20052;-71
2021/06/23 00:33:16;;;;;;;4.22;1.83;;;21.40;56.30;;;;;;3160535;28;20418;-71
2021/06/23 00:34:47;;;;;;;10.80;1.90;;;21.40;56.20;;;;;;3160838;28;20044;-71
2021/06/23 00:36:19;;;;;;;8.52;2.00;;;21.40;56.00;;;;;;3157958;28;20067;-72
2021/06/23 00:37:51;;;;;;;6.18;1.45;;;21.30;56.10;;;;;;3156761;28;20519;-71
2021/06/23 00:39:22;;;;;;;6.47;1.73;;;21.30;56.00;;;;;;3157576;28;20044;-71
2021/06/23 00:40:54;;;;;;;5.18;1.70;;;21.30;56.10;;;;;;3160348;28;20299;-71
2021/06/23 00:42:24;;;;;;;4.47;1.40;;;21.30;56.80;;;;;;3160851;28;20048;-71
2021/06/23 00:43:56;;;;;;;8.02;1.60;;;21.40;57.00;;;;;;3159423;28;20051;-71
2021/06/23 00:45:29;;;;;;;6.15;2.20;;;21.40;57.00;;;;;;3153819;28;20047;-71
2021/06/23 00:47:00;;;;;;;4.45;1.67;;;21.40;56.90;;;;;;3160505;28;20048;-71
2021/06/23 00:48:31;;;;;;;7.45;1.98;;;21.40;56.60;;;;;;3160858;28;20439;-71
2021/06/23 00:50:04;;;;;;;8.63;2.10;;;21.40;56.60;;;;;;3160988;28;20051;-71
2021/06/23 00:51:35;;;;;;;7.55;1.70;;;21.40;56.40;;;;;;3160171;28;20044;-71
2021/06/23 00:53:06;;;;;;;4.90;1.60;;;21.30;57.00;;;;;;3160989;28;20044;-71
2021/06/23 00:54:37;;;;;;;6.45;1.77;;;21.40;56.90;;;;;;3160856;28;20043;-71
2021/06/23 00:56:09;;;;;;;9.98;2.03;;;21.40;57.10;;;;;;3160439;28;20075;-71
2021/06/23 00:57:40;;;;;;;11.23;2.00;;;21.40;57.10;;;;;;3156579;28;20047;-71
2021/06/23 00:59:11;;;;;;;8.18;1.90;;;21.40;57.20;;;;;;3160688;28;20055;-71
2021/06/23 01:00:44;;;;;;;8.32;1.90;;;21.40;57.00;;;;;;3160211;28;20044;-71
2021/06/23 01:02:17;;;;;;;;;;;21.40;57.10;;;;;;3161113;28;20058;-71
2021/06/23 01:03:48;;;;;;;6.57;1.77;;;21.40;57.10;;;;;;3160865;28;19924;-71
2021/06/23 01:05:20;;;;;;;5.15;1.67;;;21.40;57.30;;;;;;3160343;28;20329;-71
2021/06/23 01:06:51;;;;;;;5.50;1.90;;;21.40;57.40;;;;;;3160320;28;20051;-71
2021/06/23 01:08:22;;;;;;;8.07;1.80;;;21.40;57.40;;;;;;3161179;28;20055;-71
2021/06/23 01:09:54;;;;;;;9.35;1.92;;;21.40;57.50;;;;;;3160745;28;20044;-72
2021/06/23 01:11:26;;;;;;;6.00;1.80;;;21.40;57.60;;;;;;3159892;28;20052;-72
2021/06/23 01:13:20;;;;;;;11.23;1.95;;;21.50;57.60;;;;;;3160528;28;20696;-71
2021/06/23 01:14:54;;;;;;;7.07;1.90;;;21.40;56.90;;;;;;3160812;28;20396;-71
2021/06/23 01:16:28;;;;;;;8.05;1.80;;;21.40;57.70;;;;;;3160112;28;20052;-71
2021/06/23 01:18:00;;;;;;;7.20;2.30;;;21.40;57.30;;;;;;3160811;28;20109;-71
2021/06/23 01:19:32;;;;;;;6.03;1.70;;;21.40;57.40;;;;;;3160591;28;20060;-71
2021/06/23 01:21:04;;;;;;;7.75;1.90;;;21.40;57.60;;;;;;3159795;28;20044;-71
2021/06/23 01:22:38;;;;;;;6.07;1.77;;;21.40;57.60;;;;;;3160307;28;20506;-71
2021/06/23 01:24:10;;;;;;;6.90;1.75;;;21.40;57.70;;;;;;3160630;28;20052;-71
2021/06/23 01:25:41;;;;;;;6.95;2.00;;;21.40;58.10;;;;;;3160112;28;20051;-71
2021/06/23 01:27:12;;;;;;;7.40;1.80;;;21.40;57.80;;;;;;3160013;28;20404;-71
2021/06/23 01:28:44;;;;;;;11.50;2.30;;;21.40;57.70;;;;;;3159529;28;20481;-71
2021/06/23 01:30:16;;;;;;;12.65;2.22;;;21.40;58.20;;;;;;3160844;28;20537;-71
2021/06/23 01:31:48;;;;;;;9.70;1.95;;;21.40;58.00;;;;;;3160228;28;20048;-71
2021/06/23 01:33:19;;;;;;;8.85;2.10;;;21.40;58.20;;;;;;3160060;28;20503;-71
2021/06/23 01:34:50;;;;;;;5.55;1.92;;;21.40;58.10;;;;;;3160323;28;20048;-71
2021/06/23 01:36:22;;;;;;;6.75;1.90;;;21.40;58.10;;;;;;3160077;28;20044;-71
2021/06/23 01:37:54;;;;;;;10.48;2.10;;;21.40;58.10;;;;;;3162385;22;20055;-71
2021/06/23 01:39:25;;;;;;;6.23;2.03;;;21.40;58.20;;;;;;3138513;28;20049;-71
2021/06/23 01:40:57;;;;;;;7.57;2.05;;;21.40;58.10;;;;;;3126322;28;20504;-71
2021/06/23 01:42:29;;;;;;;8.18;2.25;;;21.40;58.20;;;;;;3123267;28;20057;-71
2021/06/23 01:44:01;;;;;;;9.23;1.83;;;21.40;58.30;;;;;;3122771;28;20707;-71
2021/06/23 01:45:32;;;;;;;8.73;2.42;;;21.40;58.40;;;;;;3122680;28;20421;-71
2021/06/23 01:47:04;;;;;;;6.13;1.85;;;21.40;58.40;;;;;;3123135;28;20060;-71
2021/06/23 01:48:35;;;;;;;5.15;1.83;;;21.40;58.50;;;;;;3128469;28;20080;-71
2021/06/23 01:50:07;;;;;;;5.90;2.15;;;21.40;58.50;;;;;;3135011;28;20064;-71
2021/06/23 01:51:39;;;;;;;16.70;2.47;;;21.40;58.40;;;;;;3135456;28;20049;-71
2021/06/23 01:53:11;;;;;;;9.13;1.95;;;21.50;58.50;;;;;;3135582;28;20430;-71
2021/06/23 01:54:43;;;;;;;;;;;21.40;58.30;;;;;;3135467;28;20056;-72
2021/06/23 01:56:14;;;;;;;9.40;2.17;;;21.50;58.50;;;;;;3135015;28;20035;-71
2021/06/23 01:57:45;;;;;;;4.25;1.48;;;21.40;58.50;;;;;;3134937;28;20060;-72
2021/06/23 01:59:17;;;;;;;8.35;1.75;;;21.40;58.50;;;;;;3135530;28;20413;-71
2021/06/23 02:00:51;;;;;;;7.05;2.10;;;21.40;58.60;;;;;;3134958;28;20056;-71
2021/06/23 02:02:25;;;;;;;5.70;1.80;;;21.40;58.50;;;;;;3135309;28;20123;-72
2021/06/23 02:04:24;;;;;;;7.53;1.80;;;21.40;58.60;;;;;;3135257;28;20107;-71
2021/06/23 02:06:04;;;;;;;6.60;2.42;;;21.40;58.50;;;;;;3116483;28;20049;-73
2021/06/23 02:07:54;;;;;;;5.07;2.25;;;21.40;58.50;;;;;;3134971;28;20045;-71
2021/06/23 02:09:52;;;;;;;7.90;2.10;;;21.40;58.50;;;;;;3134419;28;20126;-71
2021/06/23 02:11:34;;;;;;;8.10;1.88;;;21.40;58.80;;;;;;3134864;28;20052;-71
2021/06/23 02:13:38;;;;;;;6.65;1.55;;;21.40;58.90;;;;;;3123994;28;20076;-71
2021/06/23 02:15:10;;;;;;;5.45;1.95;;;21.40;58.70;;;;;;3089286;28;20042;-71
2021/06/23 02:16:41;;;;;;;5.25;1.88;;;21.50;58.80;;;;;;3122299;28;20068;-71
2021/06/23 02:18:13;;;;;;;5.07;1.70;;;21.40;58.80;;;;;;3122431;28;20046;-72
2021/06/23 02:19:44;;;;;;;5.40;2.28;;;21.40;58.90;;;;;;3122576;28;20433;-71
2021/06/23 02:21:16;;;;;;;3.58;1.77;;;21.40;58.90;;;;;;3122216;28;20129;-72
2021/06/23 02:22:47;;;;;;;5.93;1.80;;;21.40;58.90;;;;;;3122488;28;20064;-71
2021/06/23 02:24:18;;;;;;;3.63;2.00;;;21.40;59.00;;;;;;3122688;28;20053;-74
2021/06/23 02:25:51;;;;;;;6.88;1.70;;;21.40;59.00;;;;;;3122139;28;20498;-71
2021/06/23 02:27:23;;;;;;;6.10;2.05;;;21.40;59.00;;;;;;3122682;28;20049;-71
2021/06/23 02:28:54;;;;;;;5.72;1.95;;;21.40;59.00;;;;;;3122308;28;20077;-70
2021/06/23 02:30:26;;;;;;;6.35;2.25;;;21.40;59.00;;;;;;3122228;28;20052;-72
2021/06/23 02:31:57;;;;;;;6.07;1.88;;;21.40;59.30;;;;;;3122329;28;20295;-71
2021/06/23 02:33:28;;;;;;;4.68;2.00;;;21.40;59.40;;;;;;3121765;28;20054;-71
2021/06/23 02:35:01;;;;;;;6.68;1.95;;;21.40;59.40;;;;;;3123054;28;20046;-71
2021/06/23 02:36:33;;;;;;;4.85;1.88;;;21.40;59.30;;;;;;3122097;28;20041;-71
2021/06/23 02:38:03;;;;;;;9.73;2.40;;;21.40;59.40;;;;;;3127064;28;20053;-71
2021/06/23 02:39:35;;;;;;;7.63;1.90;;;21.40;59.40;;;;;;3134610;28;20053;-71
2021/06/23 02:41:08;;;;;;;6.82;2.05;;;21.40;59.30;;;;;;3134943;28;20064;-71
2021/06/23 02:42:39;;;;;;;;;;;21.40;59.30;;;;;;3134976;28;20052;-71
2021/06/23 02:44:11;;;;;;;6.55;2.15;;;21.40;59.20;;;;;;3134673;28;19921;-71
2021/06/23 02:45:43;;;;;;;6.63;2.15;;;21.40;59.40;;;;;;3134195;28;20520;-73
2021/06/23 02:47:17;;;;;;;7.63;2.13;;;21.40;59.50;;;;;;3134729;28;20056;-72
2021/06/23 02:48:50;;;;;;;7.10;1.73;;;21.40;59.30;;;;;;3134043;28;20048;-72
2021/06/23 02:50:21;;;;;;;5.50;1.90;;;21.40;59.60;;;;;;3134293;28;20049;-72
2021/06/23 02:51:53;;;;;;;5.38;1.73;;;21.30;59.60;;;;;;3134580;28;20063;-71
2021/06/23 02:53:25;;;;;;;5.75;2.22;;;21.40;59.50;;;;;;3134629;28;20159;-71
2021/06/23 02:54:57;;;;;;;5.53;2.00;;;21.40;59.30;;;;;;3134631;28;20059;-71
2021/06/23 02:56:29;;;;;;;7.95;2.13;;;21.30;59.30;;;;;;3133611;28;20045;-71
2021/06/23 02:58:00;;;;;;;7.75;2.22;;;21.30;59.40;;;;;;3134164;28;20482;-71
2021/06/23 02:59:32;;;;;;;4.97;2.10;;;21.30;59.60;;;;;;3134691;28;20056;-72
2021/06/23 03:01:02;;;;;;;7.82;2.00;;;21.30;59.40;;;;;;3134166;28;20417;-72
2021/06/23 03:02:34;;;;;;;7.18;2.35;;;21.30;59.60;;;;;;3134384;28;20045;-72
2021/06/23 03:04:06;;;;;;;4.97;1.92;;;21.30;59.60;;;;;;3134631;28;20049;-72
2021/06/23 03:05:36;;;;;;;7.13;2.20;;;21.30;59.60;;;;;;3133891;28;20501;-71
2021/06/23 03:07:09;;;;;;;9.50;2.42;;;21.30;59.80;;;;;;3134049;28;20049;-71
2021/06/23 03:08:40;;;;;;;6.93;2.13;;;21.30;59.90;;;;;;3134228;28;20055;-72
2021/06/23 03:10:13;;;;;;;7.85;2.20;;;21.30;59.80;;;;;;3134838;28;20294;-71
2021/06/23 03:11:46;;;;;;;7.75;2.60;;;21.30;59.70;;;;;;3134322;28;20053;-70
2021/06/23 03:13:17;;;;;;;;;;;21.30;59.70;;;;;;3122469;28;20068;-71
2021/06/23 03:14:48;;;;;;;5.30;2.45;;;21.30;59.50;;;;;;3122245;28;19917;-72
2021/06/23 03:16:19;;;;;;;11.18;3.20;;;21.30;59.40;;;;;;3121989;28;20048;-71
2021/06/23 03:17:50;;;;;;;5.63;2.40;;;21.30;59.30;;;;;;3122949;28;20045;-73
2021/06/23 03:19:22;;;;;;;11.93;3.05;;;21.30;59.30;;;;;;3134513;28;20049;-71
2021/06/23 03:20:54;;;;;;;7.65;2.72;;;21.30;59.40;;;;;;3134226;28;20072;-71
2021/06/23 03:22:25;;;;;;;10.23;3.10;;;21.30;59.40;;;;;;3134069;28;20060;-71
2021/06/23 03:23:57;;;;;;;6.82;2.88;;;21.30;59.40;;;;;;3134011;28;20490;-71
2021/06/23 03:25:28;;;;;;;6.70;2.72;;;21.20;59.60;;;;;;3133578;28;20049;-71
2021/06/23 03:27:01;;;;;;;10.30;2.80;;;21.20;59.40;;;;;;3134437;28;20055;-72
2021/06/23 03:28:31;;;;;;;;;;;21.20;59.60;;;;;;3134796;28;20045;-71
2021/06/23 03:30:04;;;;;;;9.82;2.88;;;21.20;59.50;;;;;;3134104;28;20380;-71
2021/06/23 03:31:35;;;;;;;8.52;2.97;;;21.20;59.60;;;;;;3134281;28;20048;-71
2021/06/23 03:33:06;;;;;;;7.47;2.90;;;21.20;59.50;;;;;;3134647;28;20420;-71
2021/06/23 03:34:37;;;;;;;9.18;3.28;;;21.20;59.50;;;;;;3133937;28;20045;-72
2021/06/23 03:36:09;;;;;;;9.38;3.05;;;21.20;59.60;;;;;;3133733;28;20045;-71
2021/06/23 03:37:40;;;;;;;7.47;2.92;;;21.20;59.70;;;;;;3134101;28;20053;-72
2021/06/23 03:39:11;;;;;;;7.63;2.83;;;21.20;59.60;;;;;;3134573;28;20155;-71
2021/06/23 03:40:43;;;;;;;7.30;2.95;;;21.20;59.60;;;;;;3133881;28;20478;-71
2021/06/23 03:42:16;;;;;;;8.73;3.05;;;21.20;59.60;;;;;;3134186;28;20052;-72
2021/06/23 03:43:47;;;;;;;;;;;21.20;59.70;;;;;;3134741;28;20048;-71
2021/06/23 03:45:19;;;;;;;9.27;2.97;;;21.20;59.80;;;;;;3134988;28;19920;-71
2021/06/23 03:46:52;;;;;;;7.35;2.60;;;21.20;59.90;;;;;;3135905;28;20048;-71
2021/06/23 03:48:24;;;;;;;10.85;3.10;;;21.20;60.10;;;;;;3136882;28;20482;-71
2021/06/23 03:49:54;;;;;;;9.27;2.78;;;21.20;60.00;;;;;;3137034;28;20057;-72
2021/06/23 03:51:26;;;;;;;10.73;2.90;;;21.20;60.00;;;;;;3136200;28;20417;-71
2021/06/23 03:52:57;;;;;;;10.98;2.88;;;21.20;59.90;;;;;;3136540;28;20053;-71
2021/06/23 03:54:29;;;;;;;10.77;2.80;;;21.20;59.50;;;;;;3136754;28;20417;-72
2021/06/23 03:56:00;;;;;;;12.00;2.90;;;21.20;59.60;;;;;;3135937;28;20053;-71
2021/06/23 03:57:33;;;;;;;11.13;3.00;;;21.20;59.70;;;;;;3136247;28;20067;-72
2021/06/23 03:59:04;;;;;;;;;;;21.20;59.60;;;;;;3137123;28;20049;-71
2021/06/23 04:00:36;;;;;;;7.35;2.53;;;21.10;59.80;;;;;;3136613;28;19935;-71
2021/06/23 04:02:07;;;;;;;8.75;2.70;;;21.10;59.80;;;;;;3136620;28;20053;-73
2021/06/23 04:03:39;;;;;;;10.50;3.10;;;21.10;60.00;;;;;;3135757;28;20044;-71
2021/06/23 04:05:11;;;;;;;9.43;2.35;;;21.10;60.00;;;;;;3136358;28;20053;-71
2021/06/23 04:06:42;;;;;;;7.70;2.60;;;21.10;59.90;;;;;;3136032;28;20052;-71
2021/06/23 04:08:14;;;;;;;8.43;2.78;;;21.10;60.00;;;;;;3136589;28;20139;-72
2021/06/23 04:09:45;;;;;;;8.88;2.40;;;21.10;60.10;;;;;;3136672;28;20062;-71
2021/06/23 04:11:16;;;;;;;7.60;2.50;;;21.10;59.90;;;;;;3136916;28;20086;-71
2021/06/23 04:12:49;;;;;;;8.63;2.80;;;21.20;60.10;;;;;;3128648;28;20273;-73
2021/06/23 04:14:21;;;;;;;;;;;21.20;60.60;;;;;;3124307;28;20415;-72
2021/06/23 04:15:52;;;;;;;8.85;2.38;;;21.10;59.90;;;;;;3124062;28;19921;-72
2021/06/23 04:17:24;;;;;;;11.23;2.67;;;21.10;59.70;;;;;;3124069;28;20049;-71
2021/06/23 04:18:55;;;;;;;8.93;2.30;;;21.20;60.50;;;;;;3123872;28;20491;-71
2021/06/23 04:20:27;;;;;;;14.98;3.10;;;21.20;60.50;;;;;;3123830;28;20052;-72
2021/06/23 04:21:58;;;;;;;9.43;2.33;;;21.30;60.50;;;;;;3120028;28;20426;-74
2021/06/23 04:23:29;;;;;;;9.05;2.42;;;21.40;60.40;;;;;;3123700;28;20041;-72
2021/06/23 04:25:00;;;;;;;14.77;2.47;;;21.40;60.30;;;;;;3119175;28;20050;-74
2021/06/23 04:26:32;;;;;;;14.80;2.20;;;21.50;60.70;;;;;;3121799;28;20050;-72
2021/06/23 04:28:05;;;;;;;12.45;2.30;;;21.50;60.80;;;;;;3123590;28;20502;-72
2021/06/23 04:29:37;;;;;;;14.48;2.65;;;21.60;60.90;;;;;;3123571;28;20049;-71
2021/06/23 04:31:08;;;;;;;12.63;2.20;;;21.70;61.10;;;;;;3123208;28;20061;-71
2021/06/23 04:32:40;;;;;;;11.85;2.50;;;21.70;60.60;;;;;;3123725;28;20045;-73
2021/06/23 04:34:11;;;;;;;14.60;2.45;;;21.70;60.50;;;;;;3119990;28;20049;-73
2021/06/23 04:35:42;;;;;;;10.85;2.30;;;21.80;60.30;;;;;;3123131;28;20474;-72
2021/06/23 04:37:13;;;;;;;13.10;2.33;;;21.80;60.20;;;;;;3123355;28;20054;-72
2021/06/23 04:38:45;;;;;;;11.60;2.45;;;21.80;60.20;;;;;;3123440;28;20038;-72
2021/06/23 04:40:17;;;;;;;18.52;2.40;;;21.80;60.20;;;;;;3123451;28;20050;-72
2021/06/23 04:41:49;;;;;;;7.15;2.15;;;21.80;60.20;;;;;;3123968;28;20065;-71
2021/06/23 04:43:22;;;;;;;9.15;2.53;;;21.70;60.20;;;;;;3136085;28;20512;-71
2021/06/23 04:44:53;;;;;;;;;;;21.70;60.20;;;;;;3124073;28;20045;-71
2021/06/23 04:46:24;;;;;;;12.60;2.35;;;21.70;60.10;;;;;;3123187;28;19933;-72
2021/06/23 04:47:55;;;;;;;7.43;1.88;;;21.70;60.30;;;;;;3123647;28;20057;-72
2021/06/23 04:49:26;;;;;;;8.52;2.08;;;21.70;60.20;;;;;;3123363;28;20052;-72
2021/06/23 04:50:58;;;;;;;6.57;2.05;;;21.70;60.20;;;;;;3123485;28;20041;-71
2021/06/23 04:52:29;;;;;;;15.57;2.30;;;21.70;60.20;;;;;;3123487;28;20049;-71
2021/06/23 04:54:00;;;;;;;8.10;2.38;;;21.80;60.20;;;;;;3123506;28;20404;-73
2021/06/23 04:55:31;;;;;;;6.32;2.10;;;21.80;60.10;;;;;;3122826;28;20056;-72
2021/06/23 04:57:04;;;;;;;11.35;2.55;;;21.80;60.00;;;;;;3123668;28;20052;-73
2021/06/23 04:58:37;;;;;;;8.02;1.98;;;21.80;59.70;;;;;;3123759;28;20049;-72
2021/06/23 05:00:08;;;;;;;;;;;21.70;59.90;;;;;;3136275;28;20049;-72
2021/06/23 05:01:39;;;;;;;17.40;2.55;;;21.70;59.90;;;;;;3135916;28;19923;-72
2021/06/23 05:03:11;;;;;;;11.65;2.42;;;21.60;59.20;;;;;;3136153;28;20045;-72
2021/06/23 05:04:42;;;;;;;6.50;2.35;;;21.60;59.10;;;;;;3122537;28;20052;-72
2021/06/23 05:06:13;;;;;;;6.65;2.35;;;21.50;59.30;;;;;;3122946;28;20050;-72
2021/06/23 05:07:45;;;;;;;11.20;2.50;;;21.40;59.30;;;;;;3120659;28;20049;-72
2021/06/23 05:09:16;;;;;;;6.63;2.00;;;21.40;59.40;;;;;;3118195;28;20046;-72
2021/06/23 05:10:48;;;;;;;8.95;2.75;;;21.40;59.40;;;;;;3121971;28;20403;-73
2021/06/23 05:12:22;;;;;;;11.82;2.40;;;21.30;59.60;;;;;;3123081;28;20052;-72
2021/06/23 05:13:58;;;;;;;5.75;2.20;;;21.30;59.60;;;;;;3123482;28;20080;-72
2021/06/23 05:15:29;;;;;;;11.00;2.78;;;21.30;59.70;;;;;;3122895;28;20084;-72
2021/06/23 05:17:01;;;;;;;6.47;1.90;;;21.30;59.80;;;;;;3123365;28;20391;-72
2021/06/23 05:18:34;;;;;;;5.95;2.28;;;21.30;60.30;;;;;;3123231;28;20152;-72
2021/06/23 05:20:06;;;;;;;8.05;2.30;;;21.30;60.20;;;;;;3122812;28;20057;-72
2021/06/23 05:21:37;;;;;;;6.50;2.20;;;21.30;59.80;;;;;;3123412;28;20049;-72
2021/06/23 05:23:08;;;;;;;8.30;2.30;;;21.30;59.90;;;;;;3123224;28;20060;-73
2021/06/23 05:24:40;;;;;;;5.80;2.22;;;21.30;59.80;;;;;;3123380;28;20406;-72
2021/06/23 05:26:11;;;;;;;5.97;1.98;;;21.30;59.90;;;;;;3122586;28;20053;-72
2021/06/23 05:27:43;;;;;;;9.23;1.98;;;21.20;59.90;;;;;;3123340;28;20482;-72
2021/06/23 05:29:16;;;;;;;7.10;2.47;;;21.30;60.00;;;;;;3122722;28;20080;-72
2021/06/23 05:30:47;;;;;;;;;;;21.20;59.90;;;;;;3123433;28;20061;-72
2021/06/23 05:32:18;;;;;;;5.70;2.17;;;21.20;60.00;;;;;;3122872;28;19917;-72
2021/06/23 05:33:49;;;;;;;7.32;2.20;;;21.20;60.00;;;;;;3123193;28;20045;-72
2021/06/23 05:35:21;;;;;;;9.63;2.20;;;21.20;60.00;;;;;;3122944;28;20057;-72
2021/06/23 05:36:52;;;;;;;8.47;2.13;;;21.20;60.10;;;;;;3122717;28;20046;-73
2021/06/23 05:38:24;;;;;;;7.63;2.33;;;21.20;60.10;;;;;;3123409;28;20645;-72
2021/06/23 05:39:56;;;;;;;9.13;2.42;;;21.20;60.10;;;;;;3133752;28;20056;-73
2021/06/23 05:41:27;;;;;;;4.20;1.73;;;21.20;60.10;;;;;;3135024;28;20056;-72
2021/06/23 05:42:58;;;;;;;5.13;2.00;;;21.20;60.20;;;;;;3135157;28;20413;-72
2021/06/23 05:44:31;;;;;;;7.88;2.38;;;21.20;60.10;;;;;;3135348;28;20049;-72
2021/06/23 05:46:02;;;;;;;;;;;21.10;60.10;;;;;;3135358;28;20512;-74
2021/06/23 05:47:33;;;;;;;16.63;2.53;;;21.20;60.20;;;;;;3134750;28;19986;-74
2021/06/23 05:49:05;;;;;;;7.68;2.38;;;21.20;60.30;;;;;;3134975;28;20045;-75
2021/06/23 05:50:38;;;;;;;27.55;3.05;;;21.20;60.60;;;;;;3135546;28;20080;-74
2021/06/23 05:52:08;;;;;;;13.43;2.70;;;21.20;60.60;;;;;;3135208;28;20528;-74
2021/06/23 05:53:40;;;;;;;14.65;2.42;;;21.20;60.30;;;;;;3135109;28;20049;-75
2021/06/23 05:55:12;;;;;;;7.47;2.55;;;21.20;60.20;;;;;;3135353;28;20049;-75
2021/06/23 05:56:44;;;;;;;10.65;2.70;;;21.20;60.20;;;;;;3134811;28;20041;-75
2021/06/23 05:58:16;;;;;;;7.30;2.30;;;21.20;60.30;;;;;;3134842;28;20049;-75
2021/06/23 05:59:47;;;;;;;9.10;2.50;;;21.20;60.30;;;;;;3135318;28;20053;-75
2021/06/23 06:01:19;;;;;;;10.50;2.20;;;21.20;60.60;;;;;;3135444;28;20136;-75
2021/06/23 06:02:51;;;;;;;7.25;2.33;;;21.20;60.60;;;;;;3135152;28;20063;-74
2021/06/23 06:04:21;;;;;;;9.27;2.42;;;21.20;60.50;;;;;;3134809;28;20056;-74
2021/06/23 06:05:53;;;;;;;14.40;2.55;;;21.20;60.30;;;;;;3134229;28;20418;-73
2021/06/23 06:07:25;;;;;;;7.97;2.35;;;21.30;60.40;;;;;;3134770;28;20076;-68
2021/06/23 06:08:56;;;;;;;9.30;3.00;;;21.30;60.40;;;;;;3134601;28;20513;-62
2021/06/23 06:10:28;;;;;;;9.85;2.97;;;21.30;60.40;;;;;;3134794;28;20056;-62
2021/06/23 06:11:59;;;;;;;12.90;3.05;;;21.30;60.50;;;;;;3133051;28;20186;-64
2021/06/23 06:13:31;;;;;;;20.25;4.88;;;21.30;61.00;;;;;;3119039;28;20046;-65
2021/06/23 06:15:04;;;;;;;34.58;7.50;;;21.40;61.10;;;;;;3120110;28;20049;-64
2021/06/23 06:16:35;;;;;;;34.10;5.75;;;21.30;61.30;;;;;;3121926;28;20128;-64
2021/06/23 06:18:07;;;;;;;27.85;6.25;;;21.30;61.40;;;;;;3122533;28;20060;-64
2021/06/23 06:19:39;;;;;;;28.23;6.43;;;21.30;61.40;;;;;;3122800;28;20049;-64
2021/06/23 06:21:11;;;;;;;29.48;6.28;;;21.30;61.40;;;;;;3122427;28;20494;-63
2021/06/23 06:22:42;;;;;;;26.05;6.40;;;21.30;61.30;;;;;;3122632;28;20056;-64
2021/06/23 06:24:14;;;;;;;32.55;7.32;;;21.30;61.30;;;;;;3122805;28;20491;-63
2021/06/23 06:25:45;;;;;;;29.63;6.88;;;21.30;61.30;;;;;;3121781;28;20056;-63
2021/06/23 06:27:16;;;;;;;26.42;6.45;;;21.30;61.20;;;;;;3122195;28;20084;-63
2021/06/23 06:28:48;;;;;;;29.70;6.03;;;21.30;61.30;;;;;;3122497;28;20056;-64
2021/06/23 06:30:23;;;;;;;26.15;6.57;;;21.30;61.30;;;;;;3122701;28;20072;-63
2021/06/23 06:31:53;;;;;;;23.27;6.75;;;21.30;61.30;;;;;;3122296;28;20486;-65
2021/06/23 06:33:25;;;;;;;25.65;6.72;;;21.30;61.30;;;;;;3122568;28;20059;-65
2021/06/23 06:34:55;;;;;;;24.25;6.55;;;21.20;61.20;;;;;;3122615;28;20046;-64
2021/06/23 06:36:27;;;;;;;24.35;5.82;;;21.20;61.30;;;;;;3121739;28;20049;-64
2021/06/23 06:38:00;;;;;;;21.67;5.22;;;21.20;61.20;;;;;;3122259;28;20061;-64
2021/06/23 06:39:31;;;;;;;21.10;6.10;;;21.20;61.20;;;;;;3122667;28;20506;-64
2021/06/23 06:41:02;;;;;;;20.95;5.38;;;21.20;61.10;;;;;;3122330;28;20049;-64
2021/06/23 06:42:34;;;;;;;21.02;5.53;;;21.20;61.20;;;;;;3122359;28;20123;-63
2021/06/23 06:44:06;;;;;;;16.27;5.20;;;21.20;61.30;;;;;;3122464;28;20675;-65
2021/06/23 06:45:39;;;;;;;22.02;5.35;;;21.20;61.30;;;;;;3122079;28;20045;-64
2021/06/23 06:47:10;;;;;;;;;;;21.20;61.30;;;;;;3122331;28;20056;-64
2021/06/23 06:48:42;;;;;;;18.38;4.95;;;21.20;61.10;;;;;;3122430;28;20390;-65
2021/06/23 06:50:13;;;;;;;16.13;5.05;;;21.20;61.20;;;;;;3122228;28;20060;-65
2021/06/23 06:51:44;;;;;;;16.17;5.22;;;21.20;61.20;;;;;;3122175;28;20056;-65
2021/06/23 06:53:16;;;;;;;13.15;4.47;;;21.20;61.30;;;;;;3122405;28;20049;-65
2021/06/23 06:54:47;;;;;;;15.15;4.40;;;21.20;61.30;;;;;;3122254;28;20057;-64
2021/06/23 06:56:19;;;;;;;17.27;5.00;;;21.20;61.30;;;;;;3121598;28;20048;-63
2021/06/23 06:57:49;;;;;;;14.95;4.43;;;21.20;61.30;;;;;;3122232;28;20490;-64
2021/06/23 06:59:21;;;;;;;17.38;4.70;;;21.20;61.30;;;;;;3122104;28;20053;-63
2021/06/23 07:00:54;;;;;;;17.77;4.97;;;21.20;61.30;;;;;;3122140;28;20045;-65
2021/06/23 07:02:26;;;;;;;;;;;21.20;61.30;;;;;;3122778;28;20052;-65
2021/06/23 07:03:57;;;;;;;15.90;4.78;;;21.20;61.20;;;;;;3121763;28;20370;-62
2021/06/23 07:05:29;;;;;;;14.50;4.00;;;21.20;61.30;;;;;;3122214;28;20049;-65
2021/06/23 07:07:00;;;;;;;12.70;3.90;;;21.20;61.20;;;;;;3122126;28;20050;-64
2021/06/23 07:08:32;;;;;;;11.13;4.45;;;21.20;61.30;;;;;;3122174;28;20061;-64
2021/06/23 07:10:03;;;;;;;13.32;3.85;;;21.20;61.30;;;;;;3122230;28;20060;-62
2021/06/23 07:11:35;;;;;;;11.18;3.80;;;21.20;61.30;;;;;;3121956;28;20168;-65
2021/06/23 07:13:06;;;;;;;15.98;3.78;;;21.20;61.30;;;;;;3121683;28;20061;-64
2021/06/23 07:14:37;;;;;;;11.15;3.75;;;21.20;61.30;;;;;;3122069;28;20494;-65
2021/06/23 07:16:10;;;;;;;12.25;3.83;;;21.20;61.30;;;;;;3122048;28;20059;-64
2021/06/23 07:17:42;;;;;;;;;;;21.20;61.30;;;;;;3122493;28;20062;-65
2021/06/23 07:19:13;;;;;;;13.68;4.28;;;21.10;61.20;;;;;;3121929;28;20382;-64
2021/06/23 07:20:45;;;;;;;8.98;3.33;;;21.20;61.30;;;;;;3122000;28;20049;-65
2021/06/23 07:22:16;;;;;;;12.43;4.10;;;21.20;61.30;;;;;;3122228;28;20519;-62
2021/06/23 07:23:48;;;;;;;13.02;3.90;;;21.20;61.30;;;;;;3121727;28;20052;-65
2021/06/23 07:25:19;;;;;;;15.60;3.40;;;21.20;61.30;;;;;;3121921;28;20530;-65
2021/06/23 07:26:54;;;;;;;11.18;3.53;;;21.10;61.20;;;;;;3121693;28;20428;-64
2021/06/23 07:28:39;;;;;;;11.77;3.80;;;21.20;61.30;;;;;;3121864;28;20116;-65
2021/06/23 07:30:11;;;;;;;10.27;3.78;;;21.10;61.20;;;;;;3122067;28;20132;-65
2021/06/23 07:31:50;;;;;;;9.38;3.20;;;21.20;61.30;;;;;;3121427;28;20483;-65
2021/06/23 07:33:21;;;;;;;11.70;3.55;;;21.10;61.30;;;;;;3121760;28;20060;-64
2021/06/23 07:36:40;;;;;;;9.02;3.13;;;21.20;61.30;;;;;;3121512;28;20060;-65
2021/06/23 07:38:14;;;;;;;8.43;2.88;;;21.10;61.20;;;;;;3145140;22;20049;-61
2021/06/23 07:39:45;;;;;;;9.40;3.45;;;21.10;61.30;;;;;;3130152;28;20421;-61
2021/06/23 07:41:16;;;;;;;10.15;3.38;;;21.10;61.20;;;;;;3119007;28;20049;-61
2021/06/23 07:42:48;;;;;;;8.90;2.90;;;21.10;61.30;;;;;;3125216;28;20491;-62
2021/06/23 07:44:23;;;;;;;8.63;3.45;;;21.10;61.30;;;;;;3132787;28;20060;-62
2021/06/23 07:45:56;;;;;;;10.80;3.58;;;21.10;61.30;;;;;;3133235;28;20049;-62
2021/06/23 07:47:32;;;;;;;7.72;3.35;;;21.10;61.30;;;;;;3133212;28;20091;-61
2021/06/23 07:49:04;;;;;;;10.48;3.53;;;21.20;61.30;;;;;;3122203;28;20510;-62
2021/06/23 07:50:41;;;;;;;9.18;3.28;;;21.20;61.30;;;;;;3121984;28;20077;-63
2021/06/23 07:52:17;;;;;;;8.68;3.38;;;21.20;61.30;;;;;;3121858;28;20414;-61
2021/06/23 07:54:11;;;;;;;8.65;3.17;;;21.20;61.30;;;;;;3127546;28;20051;-61
2021/06/23 07:55:46;;;;;;;7.40;3.20;;;21.20;61.40;;;;;;3120846;28;20052;-61
2021/06/23 08:10:04;;;;;;;17.75;4.05;;;21.20;61.80;;;;;;3133866;28;20387;-75
2021/06/23 08:11:38;;;;;;;14.50;3.97;;;21.10;61.90;;;;;;3134615;28;20144;-75
2021/06/23 08:13:08;;;;;;;18.65;3.47;;;21.10;62.00;;;;;;3133252;28;20276;-75
2021/06/23 08:14:40;;;;;;;19.38;3.40;;;20.90;62.80;;;;;;3134111;28;20049;-75
2021/06/23 08:16:11;;;;;;;11.50;3.40;;;20.70;63.60;;;;;;3134398;28;20045;-76